sensor_id;sensor_type;location;lat;lon;timestamp;pressure;altitude;pressure_sealevel;temperature;humidity
20612;BME280;10465;42.686;23.364;2023-02-19T00:01:27;95260.47;;;10.26;50.74
20612;BME280;10465;42.686;23.364;2023-02-19T00:03:55;95260.50;;;10.21;50.51
20612;BME280;10465;42.686;23.364;2023-02-19T00:06:22;95264.31;;;10.14;51.38
20612;BME280;10465;42.686;23.364;2023-02-19T00:08:48;95257.38;;;10.19;51.67
20612;BME280;10465;42.686;23.364;2023-02-19T00:11:16;95248.34;;;10.20;51.48
20612;BME280;10465;42.686;23.364;2023-02-19T00:13:44;95245.41;;;10.07;50.88
20612;BME280;10465;42.686;23.364;2023-02-19T00:16:13;95251.25;;;10.04;51.93
20612;BME280;10465;42.686;23.364;2023-02-19T00:18:40;95251.00;;;10.06;51.63
20612;BME280;10465;42.686;23.364;2023-02-19T00:21:05;95225.78;;;9.95;51.49
20612;BME280;10465;42.686;23.364;2023-02-19T00:23:31;95229.41;;;9.99;52.74
20612;BME280;10465;42.686;23.364;2023-02-19T00:26:01;95205.56;;;9.71;52.29
20612;BME280;10465;42.686;23.364;2023-02-19T00:28:27;95226.38;;;9.91;52.29
20612;BME280;10465;42.686;23.364;2023-02-19T00:30:52;95239.31;;;9.93;52.59
20612;BME280;10465;42.686;23.364;2023-02-19T00:33:17;95242.44;;;9.95;52.13
20612;BME280;10465;42.686;23.364;2023-02-19T00:35:43;95233.16;;;9.98;51.91
20612;BME280;10465;42.686;23.364;2023-02-19T00:38:09;95233.06;;;10.03;51.80
20612;BME280;10465;42.686;23.364;2023-02-19T00:40:34;95236.38;;;10.08;52.07
20612;BME280;10465;42.686;23.364;2023-02-19T00:43:00;95244.59;;;9.93;52.20
20612;BME280;10465;42.686;23.364;2023-02-19T00:45:25;95214.66;;;9.65;52.71
20612;BME280;10465;42.686;23.364;2023-02-19T00:47:51;95176.63;;;9.14;53.40
20612;BME280;10465;42.686;23.364;2023-02-19T00:50:17;95202.66;;;9.40;53.27
20612;BME280;10465;42.686;23.364;2023-02-19T00:52:42;95218.22;;;9.41;53.29
20612;BME280;10465;42.686;23.364;2023-02-19T00:55:08;95213.72;;;9.42;53.60
20612;BME280;10465;42.686;23.364;2023-02-19T00:57:33;95215.56;;;9.41;53.82
20612;BME280;10465;42.686;23.364;2023-02-19T00:59:59;95212.63;;;9.43;53.78
20612;BME280;10465;42.686;23.364;2023-02-19T01:02:24;95213.22;;;9.40;53.59
20612;BME280;10465;42.686;23.364;2023-02-19T01:04:51;95198.03;;;9.32;54.69
20612;BME280;10465;42.686;23.364;2023-02-19T01:07:16;95220.09;;;9.55;54.09
20612;BME280;10465;42.686;23.364;2023-02-19T01:09:42;95224.28;;;9.42;53.68
20612;BME280;10465;42.686;23.364;2023-02-19T01:12:08;95209.94;;;9.29;53.94
20612;BME280;10465;42.686;23.364;2023-02-19T01:14:34;95228.66;;;9.33;54.73
20612;BME280;10465;42.686;23.364;2023-02-19T01:17:00;95219.50;;;9.25;55.81
20612;BME280;10465;42.686;23.364;2023-02-19T01:19:25;95160.66;;;8.87;56.22
20612;BME280;10465;42.686;23.364;2023-02-19T01:21:51;95211.59;;;9.25;56.22
20612;BME280;10465;42.686;23.364;2023-02-19T01:24:16;95211.16;;;9.18;55.24
20612;BME280;10465;42.686;23.364;2023-02-19T01:26:42;95198.91;;;9.08;55.31
20612;BME280;10465;42.686;23.364;2023-02-19T01:29:08;95225.59;;;9.26;54.56
20612;BME280;10465;42.686;23.364;2023-02-19T01:31:34;95229.22;;;9.30;53.80
20612;BME280;10465;42.686;23.364;2023-02-19T01:34:00;95237.06;;;9.35;53.90
20612;BME280;10465;42.686;23.364;2023-02-19T01:36:27;95052.28;;;8.22;53.52
20612;BME280;10465;42.686;23.364;2023-02-19T01:38:53;95225.78;;;9.29;53.30
20612;BME280;10465;42.686;23.364;2023-02-19T01:41:22;95234.94;;;9.37;53.21
20612;BME280;10465;42.686;23.364;2023-02-19T01:46:35;95249.34;;;9.26;53.92
20612;BME280;10465;42.686;23.364;2023-02-19T01:49:06;95233.28;;;9.22;53.34
20612;BME280;10465;42.686;23.364;2023-02-19T01:51:38;95251.88;;;9.36;54.06
20612;BME280;10465;42.686;23.364;2023-02-19T01:54:06;95265.47;;;9.43;53.54
20612;BME280;10465;42.686;23.364;2023-02-19T01:56:35;95268.34;;;9.47;53.28
20612;BME280;10465;42.686;23.364;2023-02-19T01:59:03;95251.66;;;9.32;53.46
20612;BME280;10465;42.686;23.364;2023-02-19T02:01:29;95254.22;;;9.37;53.55
20612;BME280;10465;42.686;23.364;2023-02-19T02:03:55;95228.28;;;9.02;53.84
20612;BME280;10465;42.686;23.364;2023-02-19T02:06:22;95252.28;;;9.24;53.82
20612;BME280;10465;42.686;23.364;2023-02-19T02:08:51;95248.00;;;9.28;54.15
20612;BME280;10465;42.686;23.364;2023-02-19T02:11:35;95198.81;;;8.95;54.44
20612;BME280;10465;42.686;23.364;2023-02-19T02:14:03;95258.41;;;9.38;54.19
20612;BME280;10465;42.686;23.364;2023-02-19T02:22:10;95268.97;;;9.38;53.79
20612;BME280;10465;42.686;23.364;2023-02-19T02:28:07;95251.25;;;9.39;53.27
20612;BME280;10465;42.686;23.364;2023-02-19T02:30:58;95254.03;;;9.48;52.75
20612;BME280;10465;42.686;23.364;2023-02-19T02:33:41;95262.19;;;9.51;53.58
20612;BME280;10465;42.686;23.364;2023-02-19T02:38:42;95260.41;;;9.47;52.94
20612;BME280;10465;42.686;23.364;2023-02-19T02:41:09;95257.97;;;9.50;53.43
20612;BME280;10465;42.686;23.364;2023-02-19T02:43:36;95258.53;;;9.47;53.31
20612;BME280;10465;42.686;23.364;2023-02-19T02:46:01;95246.91;;;9.48;52.83
20612;BME280;10465;42.686;23.364;2023-02-19T02:48:32;95246.72;;;9.45;52.81
20612;BME280;10465;42.686;23.364;2023-02-19T02:51:08;95257.06;;;9.41;52.36
20612;BME280;10465;42.686;23.364;2023-02-19T02:56:27;95229.44;;;9.33;52.51
20612;BME280;10465;42.686;23.364;2023-02-19T02:58:54;95253.56;;;9.46;52.78
20612;BME280;10465;42.686;23.364;2023-02-19T03:01:44;95261.69;;;9.49;52.29
20612;BME280;10465;42.686;23.364;2023-02-19T03:04:34;95253.19;;;9.52;51.77
20612;BME280;10465;42.686;23.364;2023-02-19T03:07:08;95266.91;;;9.54;52.17
20612;BME280;10465;42.686;23.364;2023-02-19T03:09:38;95267.09;;;9.58;52.12
20612;BME280;10465;42.686;23.364;2023-02-19T03:12:11;95270.75;;;9.43;52.66
20612;BME280;10465;42.686;23.364;2023-02-19T03:15:00;95275.47;;;9.27;53.07
20612;BME280;10465;42.686;23.364;2023-02-19T03:17:51;95271.84;;;9.04;53.44
20612;BME280;10465;42.686;23.364;2023-02-19T03:20:39;95279.44;;;8.87;54.61
20612;BME280;10465;42.686;23.364;2023-02-19T03:23:10;95265.88;;;8.75;54.79
20612;BME280;10465;42.686;23.364;2023-02-19T03:25:38;95253.72;;;8.55;55.66
20612;BME280;10465;42.686;23.364;2023-02-19T03:28:25;95286.44;;;8.78;55.84
20612;BME280;10465;42.686;23.364;2023-02-19T03:31:13;95272.75;;;8.76;55.30
20612;BME280;10465;42.686;23.364;2023-02-19T03:33:41;95284.94;;;8.72;54.93
20612;BME280;10465;42.686;23.364;2023-02-19T03:36:09;95277.19;;;8.56;55.61
20612;BME280;10465;42.686;23.364;2023-02-19T03:38:42;95300.53;;;8.44;55.98
20612;BME280;10465;42.686;23.364;2023-02-19T03:47:00;95301.78;;;8.52;56.31
20612;BME280;10465;42.686;23.364;2023-02-19T03:49:43;95303.13;;;8.49;56.58
20612;BME280;10465;42.686;23.364;2023-02-19T03:55:16;95305.06;;;8.38;56.33
20612;BME280;10465;42.686;23.364;2023-02-19T04:00:39;95312.16;;;8.43;56.56
20612;BME280;10465;42.686;23.364;2023-02-19T04:05:46;95318.88;;;8.25;56.94
20612;BME280;10465;42.686;23.364;2023-02-19T04:08:17;95305.34;;;8.37;56.79
20612;BME280;10465;42.686;23.364;2023-02-19T04:10:45;95323.72;;;8.47;56.90
20612;BME280;10465;42.686;23.364;2023-02-19T04:13:21;95300.75;;;8.48;56.18
20612;BME280;10465;42.686;23.364;2023-02-19T04:15:50;95313.59;;;8.54;56.66
20612;BME280;10465;42.686;23.364;2023-02-19T04:18:21;95319.06;;;8.63;56.84
20612;BME280;10465;42.686;23.364;2023-02-19T04:20:49;95271.97;;;8.22;56.36
20612;BME280;10465;42.686;23.364;2023-02-19T04:23:17;95307.06;;;8.52;56.42
20612;BME280;10465;42.686;23.364;2023-02-19T04:25:47;95321.19;;;8.61;56.52
20612;BME280;10465;42.686;23.364;2023-02-19T04:28:14;95326.38;;;8.71;56.46
20612;BME280;10465;42.686;23.364;2023-02-19T04:30:41;95311.66;;;8.65;56.08
20612;BME280;10465;42.686;23.364;2023-02-19T04:33:07;95328.44;;;8.74;55.81
20612;BME280;10465;42.686;23.364;2023-02-19T04:35:33;95317.44;;;8.67;55.62
20612;BME280;10465;42.686;23.364;2023-02-19T04:37:58;95327.78;;;8.63;56.33
20612;BME280;10465;42.686;23.364;2023-02-19T04:40:24;95326.75;;;8.30;57.10
20612;BME280;10465;42.686;23.364;2023-02-19T04:42:49;95277.41;;;8.07;56.73
20612;BME280;10465;42.686;23.364;2023-02-19T04:45:15;95323.25;;;8.11;57.39
20612;BME280;10465;42.686;23.364;2023-02-19T04:47:40;95341.09;;;7.90;58.55
20612;BME280;10465;42.686;23.364;2023-02-19T04:50:06;95308.44;;;7.86;58.32
20612;BME280;10465;42.686;23.364;2023-02-19T04:52:32;95340.03;;;8.20;58.52
20612;BME280;10465;42.686;23.364;2023-02-19T04:54:58;95334.47;;;8.22;58.37
20612;BME280;10465;42.686;23.364;2023-02-19T04:57:23;95328.88;;;8.28;57.59
20612;BME280;10465;42.686;23.364;2023-02-19T04:59:49;95341.72;;;8.40;57.31
20612;BME280;10465;42.686;23.364;2023-02-19T05:02:14;95330.69;;;8.33;56.83
20612;BME280;10465;42.686;23.364;2023-02-19T05:04:40;95343.44;;;8.55;56.15
20612;BME280;10465;42.686;23.364;2023-02-19T05:07:05;95339.72;;;8.56;56.02
20612;BME280;10465;42.686;23.364;2023-02-19T05:09:31;95348.66;;;8.60;56.12
20612;BME280;10465;42.686;23.364;2023-02-19T05:11:56;95172.25;;;7.47;56.27
20612;BME280;10465;42.686;23.364;2023-02-19T05:14:22;95335.16;;;8.61;56.16
20612;BME280;10465;42.686;23.364;2023-02-19T05:16:47;95285.25;;;8.41;55.69
20612;BME280;10465;42.686;23.364;2023-02-19T05:19:13;95349.09;;;8.91;55.54
20612;BME280;10465;42.686;23.364;2023-02-19T05:21:39;95334.88;;;8.87;54.94
20612;BME280;10465;42.686;23.364;2023-02-19T05:24:05;95349.28;;;9.00;54.76
20612;BME280;10465;42.686;23.364;2023-02-19T05:26:31;95357.59;;;9.12;54.81
20612;BME280;10465;42.686;23.364;2023-02-19T05:28:56;95363.28;;;9.19;54.50
20612;BME280;10465;42.686;23.364;2023-02-19T05:31:22;95322.50;;;9.06;54.36
20612;BME280;10465;42.686;23.364;2023-02-19T05:33:48;95352.72;;;9.19;54.57
20612;BME280;10465;42.686;23.364;2023-02-19T05:36:16;95341.50;;;9.08;54.33
20612;BME280;10465;42.686;23.364;2023-02-19T05:38:42;95371.31;;;9.33;54.41
20612;BME280;10465;42.686;23.364;2023-02-19T05:41:12;95373.88;;;9.38;54.31
20612;BME280;10465;42.686;23.364;2023-02-19T05:43:41;95373.59;;;9.39;54.48
20612;BME280;10465;42.686;23.364;2023-02-19T05:46:08;95370.25;;;9.34;54.52
20612;BME280;10465;42.686;23.364;2023-02-19T05:48:35;95372.66;;;9.30;54.43
20612;BME280;10465;42.686;23.364;2023-02-19T05:51:05;95384.22;;;9.15;54.49
20612;BME280;10465;42.686;23.364;2023-02-19T05:53:32;95375.94;;;8.98;56.19
20612;BME280;10465;42.686;23.364;2023-02-19T05:55:58;95380.44;;;8.98;55.70
20612;BME280;10465;42.686;23.364;2023-02-19T06:00:58;95378.81;;;9.02;56.24
20612;BME280;10465;42.686;23.364;2023-02-19T06:03:24;95383.53;;;9.05;56.26
20612;BME280;10465;42.686;23.364;2023-02-19T06:05:49;95384.63;;;9.23;55.29
20612;BME280;10465;42.686;23.364;2023-02-19T06:08:15;95381.00;;;9.19;55.53
20612;BME280;10465;42.686;23.364;2023-02-19T06:10:40;95394.53;;;9.36;55.54
20612;BME280;10465;42.686;23.364;2023-02-19T06:13:09;95407.81;;;9.50;55.76
20612;BME280;10465;42.686;23.364;2023-02-19T06:15:36;95395.53;;;9.59;55.18
20612;BME280;10465;42.686;23.364;2023-02-19T06:18:02;95415.84;;;9.82;54.62
20612;BME280;10465;42.686;23.364;2023-02-19T06:20:28;95396.03;;;9.80;54.57
20612;BME280;10465;42.686;23.364;2023-02-19T06:22:53;95389.63;;;9.86;53.58
20612;BME280;10465;42.686;23.364;2023-02-19T06:25:19;95405.41;;;10.10;53.20
20612;BME280;10465;42.686;23.364;2023-02-19T06:27:45;95397.47;;;10.10;52.62
20612;BME280;10465;42.686;23.364;2023-02-19T06:30:10;95408.38;;;10.41;51.87
20612;BME280;10465;42.686;23.364;2023-02-19T06:32:36;95407.84;;;10.58;51.15
20612;BME280;10465;42.686;23.364;2023-02-19T06:35:02;95409.63;;;10.62;50.98
20612;BME280;10465;42.686;23.364;2023-02-19T06:37:29;95404.13;;;10.73;49.99
20612;BME280;10465;42.686;23.364;2023-02-19T06:39:54;95415.44;;;10.78;50.03
20612;BME280;10465;42.686;23.364;2023-02-19T06:42:19;95416.13;;;10.84;50.10
20612;BME280;10465;42.686;23.364;2023-02-19T06:44:45;95411.13;;;10.96;49.53
20612;BME280;10465;42.686;23.364;2023-02-19T06:47:10;95392.38;;;10.93;49.56
20612;BME280;10465;42.686;23.364;2023-02-19T06:49:38;95413.19;;;11.13;49.09
20612;BME280;10465;42.686;23.364;2023-02-19T06:52:03;95386.78;;;11.08;49.03
20612;BME280;10465;42.686;23.364;2023-02-19T06:54:29;95420.06;;;11.28;48.45
20612;BME280;10465;42.686;23.364;2023-02-19T06:56:55;95410.66;;;11.35;48.55
20612;BME280;10465;42.686;23.364;2023-02-19T06:59:23;95419.47;;;11.45;48.24
20612;BME280;10465;42.686;23.364;2023-02-19T07:01:49;95412.41;;;11.40;48.37
20612;BME280;10465;42.686;23.364;2023-02-19T07:04:14;95394.94;;;11.25;48.43
20612;BME280;10465;42.686;23.364;2023-02-19T07:06:39;95421.03;;;11.59;47.67
20612;BME280;10465;42.686;23.364;2023-02-19T07:09:06;95423.38;;;11.61;47.30
20612;BME280;10465;42.686;23.364;2023-02-19T07:11:34;95424.03;;;11.67;47.51
20612;BME280;10465;42.686;23.364;2023-02-19T07:14:01;95412.91;;;11.78;47.55
20612;BME280;10465;42.686;23.364;2023-02-19T07:16:29;95421.97;;;11.91;46.83
20612;BME280;10465;42.686;23.364;2023-02-19T07:18:56;95418.50;;;12.04;46.59
20612;BME280;10465;42.686;23.364;2023-02-19T07:21:22;95417.97;;;12.16;46.51
20612;BME280;10465;42.686;23.364;2023-02-19T07:23:48;95411.81;;;12.29;45.80
20612;BME280;10465;42.686;23.364;2023-02-19T07:26:15;95402.38;;;12.23;46.09
20612;BME280;10465;42.686;23.364;2023-02-19T07:28:46;95395.81;;;12.43;46.71
20612;BME280;10465;42.686;23.364;2023-02-19T07:31:13;95391.44;;;12.47;46.43
20612;BME280;10465;42.686;23.364;2023-02-19T07:33:42;95394.06;;;12.61;45.40
20612;BME280;10465;42.686;23.364;2023-02-19T07:36:08;95366.41;;;12.62;45.30
20612;BME280;10465;42.686;23.364;2023-02-19T07:38:33;95378.47;;;12.68;45.32
20612;BME280;10465;42.686;23.364;2023-02-19T07:41:00;95391.22;;;12.89;44.79
20612;BME280;10465;42.686;23.364;2023-02-19T07:43:28;95389.72;;;13.05;44.66
20612;BME280;10465;42.686;23.364;2023-02-19T07:45:54;95375.81;;;13.08;44.80
20612;BME280;10465;42.686;23.364;2023-02-19T07:48:20;95387.13;;;13.22;44.38
20612;BME280;10465;42.686;23.364;2023-02-19T07:50:57;95379.47;;;13.21;44.06
20612;BME280;10465;42.686;23.364;2023-02-19T07:53:23;95382.78;;;13.35;44.13
20612;BME280;10465;42.686;23.364;2023-02-19T07:55:50;95362.63;;;13.43;43.61
20612;BME280;10465;42.686;23.364;2023-02-19T07:58:16;95387.88;;;13.63;43.16
20612;BME280;10465;42.686;23.364;2023-02-19T08:00:41;95383.16;;;13.59;43.38
20612;BME280;10465;42.686;23.364;2023-02-19T08:03:07;95391.63;;;13.70;42.85
20612;BME280;10465;42.686;23.364;2023-02-19T08:05:36;95391.81;;;13.82;42.48
20612;BME280;10465;42.686;23.364;2023-02-19T08:08:04;95388.81;;;14.01;42.28
20612;BME280;10465;42.686;23.364;2023-02-19T08:10:29;95385.53;;;14.22;41.56
20612;BME280;10465;42.686;23.364;2023-02-19T08:13:15;95368.75;;;14.47;40.40
20612;BME280;10465;42.686;23.364;2023-02-19T08:15:55;95392.03;;;14.76;40.14
20612;BME280;10465;42.686;23.364;2023-02-19T08:18:25;95390.75;;;14.91;39.81
20612;BME280;10465;42.686;23.364;2023-02-19T08:20:51;95392.19;;;14.80;40.11
20612;BME280;10465;42.686;23.364;2023-02-19T08:23:17;95389.06;;;14.78;39.68
20612;BME280;10465;42.686;23.364;2023-02-19T08:25:45;95391.53;;;14.92;39.62
20612;BME280;10465;42.686;23.364;2023-02-19T08:28:11;95383.69;;;14.95;39.54
20612;BME280;10465;42.686;23.364;2023-02-19T08:30:38;95378.69;;;14.85;39.24
20612;BME280;10465;42.686;23.364;2023-02-19T08:33:05;95376.50;;;14.87;39.61
20612;BME280;10465;42.686;23.364;2023-02-19T08:35:31;95377.69;;;14.98;39.33
20612;BME280;10465;42.686;23.364;2023-02-19T08:37:59;95397.28;;;15.11;39.21
20612;BME280;10465;42.686;23.364;2023-02-19T08:40:25;95381.38;;;15.23;39.17
20612;BME280;10465;42.686;23.364;2023-02-19T08:42:51;95380.25;;;15.54;38.92
20612;BME280;10465;42.686;23.364;2023-02-19T08:45:17;95370.81;;;15.56;38.50
20612;BME280;10465;42.686;23.364;2023-02-19T08:47:43;95352.63;;;15.79;38.16
20612;BME280;10465;42.686;23.364;2023-02-19T08:50:09;95347.63;;;15.78;37.98
20612;BME280;10465;42.686;23.364;2023-02-19T08:52:35;95351.59;;;15.93;37.90
20612;BME280;10465;42.686;23.364;2023-02-19T08:55:02;95353.09;;;16.02;38.06
20612;BME280;10465;42.686;23.364;2023-02-19T08:57:28;95361.69;;;16.41;37.95
20612;BME280;10465;42.686;23.364;2023-02-19T08:59:56;95344.06;;;16.61;37.11
20612;BME280;10465;42.686;23.364;2023-02-19T09:02:23;95339.69;;;16.69;36.73
20612;BME280;10465;42.686;23.364;2023-02-19T09:04:49;95335.81;;;16.66;36.45
20612;BME280;10465;42.686;23.364;2023-02-19T09:07:14;95332.13;;;16.71;36.47
20612;BME280;10465;42.686;23.364;2023-02-19T09:09:40;95341.22;;;16.91;36.21
20612;BME280;10465;42.686;23.364;2023-02-19T09:12:07;95339.31;;;17.03;36.37
20612;BME280;10465;42.686;23.364;2023-02-19T09:14:34;95330.16;;;17.41;36.06
20612;BME280;10465;42.686;23.364;2023-02-19T09:17:04;95325.19;;;17.92;35.14
20612;BME280;10465;42.686;23.364;2023-02-19T09:19:30;95322.75;;;18.15;34.84
20612;BME280;10465;42.686;23.364;2023-02-19T09:21:56;95322.00;;;18.31;34.02
20612;BME280;10465;42.686;23.364;2023-02-19T09:24:22;95320.31;;;18.54;33.90
20612;BME280;10465;42.686;23.364;2023-02-19T09:26:49;95305.59;;;18.76;33.51
20612;BME280;10465;42.686;23.364;2023-02-19T09:29:14;95321.13;;;19.18;33.26
20612;BME280;10465;42.686;23.364;2023-02-19T09:31:40;95306.53;;;19.35;33.23
20612;BME280;10465;42.686;23.364;2023-02-19T09:34:06;95319.16;;;19.50;33.28
20612;BME280;10465;42.686;23.364;2023-02-19T09:36:31;95312.16;;;19.45;33.01
20612;BME280;10465;42.686;23.364;2023-02-19T09:38:58;95313.91;;;19.38;33.01
20612;BME280;10465;42.686;23.364;2023-02-19T09:41:26;95311.34;;;19.25;33.44
20612;BME280;10465;42.686;23.364;2023-02-19T09:43:53;95308.31;;;18.80;34.54
20612;BME280;10465;42.686;23.364;2023-02-19T09:49:33;95317.03;;;18.45;35.54
20612;BME280;10465;42.686;23.364;2023-02-19T09:52:06;95308.69;;;18.78;34.77
20612;BME280;10465;42.686;23.364;2023-02-19T09:54:36;95306.28;;;19.24;33.93
20612;BME280;10465;42.686;23.364;2023-02-19T09:57:02;95301.06;;;19.47;33.30
20612;BME280;10465;42.686;23.364;2023-02-19T09:59:33;95282.69;;;19.84;33.24
20612;BME280;10465;42.686;23.364;2023-02-19T10:02:13;95281.34;;;19.94;32.54
20612;BME280;10465;42.686;23.364;2023-02-19T10:04:41;95273.50;;;19.85;32.46
20612;BME280;10465;42.686;23.364;2023-02-19T10:07:15;95267.28;;;19.81;32.21
20612;BME280;10465;42.686;23.364;2023-02-19T10:09:43;95262.22;;;19.60;32.50
20612;BME280;10465;42.686;23.364;2023-02-19T10:12:18;95264.69;;;19.49;32.39
20612;BME280;10465;42.686;23.364;2023-02-19T10:14:49;95254.13;;;19.76;33.88
20612;BME280;10465;42.686;23.364;2023-02-19T10:17:28;95237.84;;;20.08;32.13
20612;BME280;10465;42.686;23.364;2023-02-19T10:19:54;95240.97;;;20.10;31.38
20612;BME280;10465;42.686;23.364;2023-02-19T10:22:20;95233.47;;;19.99;31.29
20612;BME280;10465;42.686;23.364;2023-02-19T10:24:51;95232.47;;;20.08;31.10
20612;BME280;10465;42.686;23.364;2023-02-19T10:27:17;95227.09;;;20.08;31.18
20612;BME280;10465;42.686;23.364;2023-02-19T10:29:44;95220.06;;;20.22;30.85
20612;BME280;10465;42.686;23.364;2023-02-19T10:32:16;95213.06;;;20.18;30.75
20612;BME280;10465;42.686;23.364;2023-02-19T10:34:45;95206.59;;;20.45;30.40
20612;BME280;10465;42.686;23.364;2023-02-19T10:37:15;95207.25;;;20.58;30.46
20612;BME280;10465;42.686;23.364;2023-02-19T10:39:44;95207.25;;;20.58;29.98
20612;BME280;10465;42.686;23.364;2023-02-19T10:42:21;95202.72;;;20.20;30.14
20612;BME280;10465;42.686;23.364;2023-02-19T10:44:52;95189.41;;;20.04;30.09
20612;BME280;10465;42.686;23.364;2023-02-19T10:47:21;95171.75;;;19.84;30.54
20612;BME280;10465;42.686;23.364;2023-02-19T10:49:49;95183.06;;;19.93;30.26
20612;BME280;10465;42.686;23.364;2023-02-19T10:52:41;95173.81;;;20.36;30.11
20612;BME280;10465;42.686;23.364;2023-02-19T10:55:31;95172.78;;;20.44;30.00
20612;BME280;10465;42.686;23.364;2023-02-19T10:58:19;95133.63;;;20.70;29.56
20612;BME280;10465;42.686;23.364;2023-02-19T11:00:45;95162.06;;;20.97;29.11
20612;BME280;10465;42.686;23.364;2023-02-19T11:03:21;95157.63;;;21.39;29.63
20612;BME280;10465;42.686;23.364;2023-02-19T11:06:07;95137.72;;;21.17;28.96
20612;BME280;10465;42.686;23.364;2023-02-19T11:11:07;95131.00;;;20.73;29.22
20612;BME280;10465;42.686;23.364;2023-02-19T11:13:33;95138.44;;;20.84;28.84
20612;BME280;10465;42.686;23.364;2023-02-19T11:16:02;95125.22;;;20.71;28.88
20612;BME280;10465;42.686;23.364;2023-02-19T11:18:32;95122.97;;;20.77;29.42
20612;BME280;10465;42.686;23.364;2023-02-19T11:21:04;95118.44;;;21.11;29.71
20612;BME280;10465;42.686;23.364;2023-02-19T11:23:43;95110.31;;;21.38;28.80
20612;BME280;10465;42.686;23.364;2023-02-19T11:26:22;95105.03;;;21.18;28.70
20612;BME280;10465;42.686;23.364;2023-02-19T11:28:58;95098.50;;;21.16;28.50
20612;BME280;10465;42.686;23.364;2023-02-19T11:31:29;95103.56;;;20.91;28.91
20612;BME280;10465;42.686;23.364;2023-02-19T11:36:45;95083.72;;;21.73;28.33
20612;BME280;10465;42.686;23.364;2023-02-19T11:50:32;95069.25;;;21.89;27.26
20612;BME280;10465;42.686;23.364;2023-02-19T12:07:19;95032.34;;;23.57;26.41
20612;BME280;10465;42.686;23.364;2023-02-19T12:20:46;95009.59;;;23.65;27.10
20612;BME280;10465;42.686;23.364;2023-02-19T12:26:41;95005.31;;;23.50;35.80
20612;BME280;10465;42.686;23.364;2023-02-19T12:29:36;95000.19;;;22.94;28.33
20612;BME280;10465;42.686;23.364;2023-02-19T12:37:51;94985.34;;;22.53;35.04
20612;BME280;10465;42.686;23.364;2023-02-19T12:43:50;94970.78;;;22.71;28.60
20612;BME280;10465;42.686;23.364;2023-02-19T12:51:44;94952.31;;;22.88;32.56
20612;BME280;10465;42.686;23.364;2023-02-19T12:54:12;94949.31;;;23.07;31.55
20612;BME280;10465;42.686;23.364;2023-02-19T12:56:45;94929.28;;;23.15;31.50
20612;BME280;10465;42.686;23.364;2023-02-19T12:59:16;94945.50;;;23.26;30.69
20612;BME280;10465;42.686;23.364;2023-02-19T13:01:52;94935.88;;;23.50;25.49
20612;BME280;10465;42.686;23.364;2023-02-19T13:04:48;94925.84;;;23.51;24.86
20612;BME280;10465;42.686;23.364;2023-02-19T13:07:32;94874.91;;;23.10;27.59
20612;BME280;10465;42.686;23.364;2023-02-19T13:10:29;94922.75;;;23.52;27.74
20612;BME280;10465;42.686;23.364;2023-02-19T13:12:52;94920.44;;;23.68;29.52
20612;BME280;10465;42.686;23.364;2023-02-19T13:15:32;94895.75;;;23.66;30.14
20612;BME280;10465;42.686;23.364;2023-02-19T13:18:00;94905.75;;;23.95;30.21
20612;BME280;10465;42.686;23.364;2023-02-19T13:20:34;94902.22;;;24.15;28.66
20612;BME280;10465;42.686;23.364;2023-02-19T13:23:22;94911.81;;;24.38;28.19
20612;BME280;10465;42.686;23.364;2023-02-19T13:37:31;94874.84;;;23.88;24.71
20612;BME280;10465;42.686;23.364;2023-02-19T13:40:16;94882.19;;;23.88;24.98
20612;BME280;10465;42.686;23.364;2023-02-19T13:42:50;94852.44;;;22.70;25.80
20612;BME280;10465;42.686;23.364;2023-02-19T13:45:22;94876.75;;;22.88;26.66
20612;BME280;10465;42.686;23.364;2023-02-19T13:50:28;94870.56;;;22.66;27.80
20612;BME280;10465;42.686;23.364;2023-02-19T13:52:56;94875.63;;;22.92;27.59
20612;BME280;10465;42.686;23.364;2023-02-19T14:01:03;94863.47;;;22.22;27.25
20612;BME280;10465;42.686;23.364;2023-02-19T14:03:47;94855.41;;;21.56;28.17
20612;BME280;10465;42.686;23.364;2023-02-19T14:06:15;94853.09;;;21.10;28.13
20612;BME280;10465;42.686;23.364;2023-02-19T14:08:53;94855.22;;;20.87;28.91
20612;BME280;10465;42.686;23.364;2023-02-19T14:16:58;94849.00;;;20.12;31.40
20612;BME280;10465;42.686;23.364;2023-02-19T14:33:26;94838.69;;;20.17;30.52
20612;BME280;10465;42.686;23.364;2023-02-19T14:36:26;94834.25;;;20.66;32.43
20612;BME280;10465;42.686;23.364;2023-02-19T14:38:56;94836.94;;;21.10;29.47
20612;BME280;10465;42.686;23.364;2023-02-19T14:41:23;94834.66;;;21.12;28.86
20612;BME280;10465;42.686;23.364;2023-02-19T14:43:51;94824.22;;;21.04;28.84
20612;BME280;10465;42.686;23.364;2023-02-19T14:48:48;94815.59;;;20.84;29.58
20612;BME280;10465;42.686;23.364;2023-02-19T14:51:34;94818.59;;;20.75;30.25
20612;BME280;10465;42.686;23.364;2023-02-19T14:54:13;94807.03;;;20.71;30.22
20612;BME280;10465;42.686;23.364;2023-02-19T14:56:43;94812.91;;;20.84;29.81
20612;BME280;10465;42.686;23.364;2023-02-19T15:01:37;94808.88;;;21.08;29.18
20612;BME280;10465;42.686;23.364;2023-02-19T15:04:03;94818.03;;;20.99;29.67
20612;BME280;10465;42.686;23.364;2023-02-19T15:06:30;94808.69;;;20.86;29.82
20612;BME280;10465;42.686;23.364;2023-02-19T15:09:03;94812.00;;;20.69;31.20
20612;BME280;10465;42.686;23.364;2023-02-19T15:11:31;94805.88;;;20.35;32.30
20612;BME280;10465;42.686;23.364;2023-02-19T15:13:59;94806.53;;;20.24;32.87
20612;BME280;10465;42.686;23.364;2023-02-19T15:16:27;94809.81;;;20.07;31.91
20612;BME280;10465;42.686;23.364;2023-02-19T15:18:54;94798.00;;;19.82;32.47
20612;BME280;10465;42.686;23.364;2023-02-19T15:21:38;94810.41;;;19.63;33.95
20612;BME280;10465;42.686;23.364;2023-02-19T15:24:05;94812.13;;;19.52;37.21
20612;BME280;10465;42.686;23.364;2023-02-19T15:26:36;94806.59;;;19.38;36.15
20612;BME280;10465;42.686;23.364;2023-02-19T15:29:09;94819.22;;;19.37;37.01